sensor_id;sensor_type;location;lat;lon;timestamp;P1;durP1;ratioP1;P2;durP2;ratioP2
22230;SDS011;11284;48.086;-1.652;2023-02-11T00:00:11;40.55;;;29.83;;
22230;SDS011;11284;48.086;-1.652;2023-02-11T00:02:37;39.58;;;28.58;;
22230;SDS011;11284;48.086;-1.652;2023-02-11T00:05:03;41.28;;;29.60;;
22230;SDS011;11284;48.086;-1.652;2023-02-11T00:07:30;37.78;;;28.65;;
22230;SDS011;11284;48.086;-1.652;2023-02-11T00:09:56;39.70;;;29.42;;
22230;SDS011;11284;48.086;-1.652;2023-02-11T00:12:22;38.47;;;28.92;;
22230;SDS011;11284;48.086;-1.652;2023-02-11T00:14:48;36.85;;;27.27;;
22230;SDS011;11284;48.086;-1.652;2023-02-11T00:17:15;38.50;;;27.88;;
22230;SDS011;11284;48.086;-1.652;2023-02-11T00:19:41;38.25;;;26.90;;
22230;SDS011;11284;48.086;-1.652;2023-02-11T00:22:07;39.22;;;27.05;;
22230;SDS011;11284;48.086;-1.652;2023-02-11T00:24:34;37.70;;;28.23;;
22230;SDS011;11284;48.086;-1.652;2023-02-11T00:27:00;34.80;;;27.38;;
22230;SDS011;11284;48.086;-1.652;2023-02-11T00:29:26;36.78;;;27.70;;
22230;SDS011;11284;48.086;-1.652;2023-02-11T00:31:52;35.63;;;26.23;;
22230;SDS011;11284;48.086;-1.652;2023-02-11T00:34:18;34.70;;;27.05;;
22230;SDS011;11284;48.086;-1.652;2023-02-11T00:36:44;38.13;;;26.38;;
22230;SDS011;11284;48.086;-1.652;2023-02-11T00:39:11;34.80;;;28.20;;
22230;SDS011;11284;48.086;-1.652;2023-02-11T00:41:38;34.35;;;27.30;;
22230;SDS011;11284;48.086;-1.652;2023-02-11T00:44:04;36.10;;;26.45;;
22230;SDS011;11284;48.086;-1.652;2023-02-11T00:46:30;37.97;;;28.17;;
22230;SDS011;11284;48.086;-1.652;2023-02-11T00:48:56;37.33;;;27.38;;
22230;SDS011;11284;48.086;-1.652;2023-02-11T00:51:26;37.38;;;27.52;;
22230;SDS011;11284;48.086;-1.652;2023-02-11T00:53:52;34.75;;;26.90;;
22230;SDS011;11284;48.086;-1.652;2023-02-11T00:56:18;36.22;;;27.20;;
22230;SDS011;11284;48.086;-1.652;2023-02-11T00:58:44;35.80;;;27.80;;
22230;SDS011;11284;48.086;-1.652;2023-02-11T01:01:10;36.45;;;26.98;;
22230;SDS011;11284;48.086;-1.652;2023-02-11T01:03:36;34.60;;;26.83;;
22230;SDS011;11284;48.086;-1.652;2023-02-11T01:06:03;34.58;;;27.25;;
22230;SDS011;11284;48.086;-1.652;2023-02-11T01:08:29;37.55;;;26.90;;
22230;SDS011;11284;48.086;-1.652;2023-02-11T01:10:56;36.28;;;27.25;;
22230;SDS011;11284;48.086;-1.652;2023-02-11T01:13:22;31.67;;;26.42;;
22230;SDS011;11284;48.086;-1.652;2023-02-11T01:15:48;40.13;;;26.42;;
22230;SDS011;11284;48.086;-1.652;2023-02-11T01:18:14;35.63;;;26.50;;
22230;SDS011;11284;48.086;-1.652;2023-02-11T01:20:40;34.70;;;27.30;;
22230;SDS011;11284;48.086;-1.652;2023-02-11T01:23:06;35.58;;;27.20;;
22230;SDS011;11284;48.086;-1.652;2023-02-11T01:25:32;35.40;;;25.90;;
22230;SDS011;11284;48.086;-1.652;2023-02-11T01:27:58;37.55;;;27.55;;
22230;SDS011;11284;48.086;-1.652;2023-02-11T01:30:24;35.85;;;27.25;;
22230;SDS011;11284;48.086;-1.652;2023-02-11T01:32:51;39.40;;;27.73;;
22230;SDS011;11284;48.086;-1.652;2023-02-11T01:35:17;35.30;;;27.10;;
22230;SDS011;11284;48.086;-1.652;2023-02-11T01:37:43;34.45;;;27.35;;
22230;SDS011;11284;48.086;-1.652;2023-02-11T01:40:15;37.38;;;27.42;;
22230;SDS011;11284;48.086;-1.652;2023-02-11T01:42:42;37.47;;;27.95;;
22230;SDS011;11284;48.086;-1.652;2023-02-11T01:47:53;38.42;;;28.08;;
22230;SDS011;11284;48.086;-1.652;2023-02-11T01:50:19;36.75;;;27.90;;
22230;SDS011;11284;48.086;-1.652;2023-02-11T01:52:45;35.42;;;27.10;;
22230;SDS011;11284;48.086;-1.652;2023-02-11T01:55:12;36.25;;;28.13;;
22230;SDS011;11284;48.086;-1.652;2023-02-11T01:58:01;35.22;;;27.15;;
22230;SDS011;11284;48.086;-1.652;2023-02-11T02:00:30;40.58;;;29.65;;
22230;SDS011;11284;48.086;-1.652;2023-02-11T02:03:18;44.22;;;29.50;;
22230;SDS011;11284;48.086;-1.652;2023-02-11T02:10:52;39.30;;;29.20;;
22230;SDS011;11284;48.086;-1.652;2023-02-11T02:13:21;35.38;;;27.75;;
22230;SDS011;11284;48.086;-1.652;2023-02-11T02:15:48;38.47;;;28.67;;
22230;SDS011;11284;48.086;-1.652;2023-02-11T02:23:27;35.38;;;27.92;;
22230;SDS011;11284;48.086;-1.652;2023-02-11T02:31:22;37.40;;;28.05;;
22230;SDS011;11284;48.086;-1.652;2023-02-11T02:33:45;38.17;;;27.77;;
22230;SDS011;11284;48.086;-1.652;2023-02-11T02:36:27;37.33;;;27.33;;
22230;SDS011;11284;48.086;-1.652;2023-02-11T02:38:56;36.88;;;26.63;;
22230;SDS011;11284;48.086;-1.652;2023-02-11T02:41:26;37.53;;;27.08;;
22230;SDS011;11284;48.086;-1.652;2023-02-11T02:43:53;36.80;;;27.10;;
22230;SDS011;11284;48.086;-1.652;2023-02-11T02:46:26;36.03;;;27.13;;
22230;SDS011;11284;48.086;-1.652;2023-02-11T02:48:53;41.30;;;28.20;;
22230;SDS011;11284;48.086;-1.652;2023-02-11T02:56:43;36.80;;;26.75;;
22230;SDS011;11284;48.086;-1.652;2023-02-11T03:04:16;43.20;;;29.83;;
22230;SDS011;11284;48.086;-1.652;2023-02-11T03:09:15;41.15;;;29.77;;
22230;SDS011;11284;48.086;-1.652;2023-02-11T03:11:43;38.13;;;27.55;;
22230;SDS011;11284;48.086;-1.652;2023-02-11T03:14:11;52.70;;;30.50;;
22230;SDS011;11284;48.086;-1.652;2023-02-11T03:16:37;54.10;;;31.23;;
22230;SDS011;11284;48.086;-1.652;2023-02-11T03:19:20;56.03;;;31.58;;
22230;SDS011;11284;48.086;-1.652;2023-02-11T03:21:48;44.53;;;29.40;;
22230;SDS011;11284;48.086;-1.652;2023-02-11T03:24:23;43.67;;;30.35;;
22230;SDS011;11284;48.086;-1.652;2023-02-11T03:26:53;48.20;;;29.92;;
22230;SDS011;11284;48.086;-1.652;2023-02-11T03:36:53;46.50;;;31.48;;
22230;SDS011;11284;48.086;-1.652;2023-02-11T03:39:23;44.88;;;31.30;;
22230;SDS011;11284;48.086;-1.652;2023-02-11T03:41:50;41.97;;;30.95;;
22230;SDS011;11284;48.086;-1.652;2023-02-11T03:44:17;41.88;;;28.85;;
22230;SDS011;11284;48.086;-1.652;2023-02-11T03:46:47;39.85;;;29.48;;
22230;SDS011;11284;48.086;-1.652;2023-02-11T03:49:13;43.55;;;29.85;;
22230;SDS011;11284;48.086;-1.652;2023-02-11T03:51:41;41.95;;;30.13;;
22230;SDS011;11284;48.086;-1.652;2023-02-11T03:54:09;39.28;;;30.77;;
22230;SDS011;11284;48.086;-1.652;2023-02-11T03:56:37;43.50;;;30.52;;
22230;SDS011;11284;48.086;-1.652;2023-02-11T03:59:04;44.08;;;31.13;;
22230;SDS011;11284;48.086;-1.652;2023-02-11T04:01:30;42.40;;;31.20;;
22230;SDS011;11284;48.086;-1.652;2023-02-11T04:03:56;43.40;;;31.70;;
22230;SDS011;11284;48.086;-1.652;2023-02-11T04:06:22;50.63;;;32.40;;
22230;SDS011;11284;48.086;-1.652;2023-02-11T04:08:48;45.78;;;31.58;;
22230;SDS011;11284;48.086;-1.652;2023-02-11T04:11:14;47.75;;;32.80;;
22230;SDS011;11284;48.086;-1.652;2023-02-11T04:13:40;43.55;;;32.47;;
22230;SDS011;11284;48.086;-1.652;2023-02-11T04:16:06;43.20;;;32.30;;
22230;SDS011;11284;48.086;-1.652;2023-02-11T04:18:32;42.97;;;31.48;;
22230;SDS011;11284;48.086;-1.652;2023-02-11T04:20:58;47.85;;;33.40;;
22230;SDS011;11284;48.086;-1.652;2023-02-11T04:23:24;44.50;;;32.20;;
22230;SDS011;11284;48.086;-1.652;2023-02-11T04:25:50;44.78;;;31.80;;
22230;SDS011;11284;48.086;-1.652;2023-02-11T04:28:16;42.92;;;32.22;;
22230;SDS011;11284;48.086;-1.652;2023-02-11T04:30:42;41.88;;;30.73;;
22230;SDS011;11284;48.086;-1.652;2023-02-11T04:33:08;40.33;;;31.73;;
22230;SDS011;11284;48.086;-1.652;2023-02-11T04:35:34;42.95;;;31.45;;
22230;SDS011;11284;48.086;-1.652;2023-02-11T04:38:00;42.45;;;31.40;;
22230;SDS011;11284;48.086;-1.652;2023-02-11T04:40:26;41.13;;;30.48;;
22230;SDS011;11284;48.086;-1.652;2023-02-11T04:42:52;41.47;;;29.83;;
22230;SDS011;11284;48.086;-1.652;2023-02-11T04:45:18;39.45;;;29.38;;
22230;SDS011;11284;48.086;-1.652;2023-02-11T04:47:44;41.30;;;30.25;;
22230;SDS011;11284;48.086;-1.652;2023-02-11T04:50:10;41.80;;;31.00;;
22230;SDS011;11284;48.086;-1.652;2023-02-11T04:52:36;41.92;;;30.17;;
22230;SDS011;11284;48.086;-1.652;2023-02-11T04:55:02;44.13;;;30.42;;
22230;SDS011;11284;48.086;-1.652;2023-02-11T04:57:29;41.65;;;28.75;;
22230;SDS011;11284;48.086;-1.652;2023-02-11T04:59:55;37.15;;;27.70;;
22230;SDS011;11284;48.086;-1.652;2023-02-11T05:02:21;39.90;;;29.80;;
22230;SDS011;11284;48.086;-1.652;2023-02-11T05:04:47;38.13;;;26.75;;
22230;SDS011;11284;48.086;-1.652;2023-02-11T05:07:13;34.25;;;27.13;;
22230;SDS011;11284;48.086;-1.652;2023-02-11T05:09:39;38.47;;;27.65;;
22230;SDS011;11284;48.086;-1.652;2023-02-11T05:12:05;34.90;;;27.27;;
22230;SDS011;11284;48.086;-1.652;2023-02-11T05:14:31;33.88;;;25.95;;
22230;SDS011;11284;48.086;-1.652;2023-02-11T05:16:57;33.55;;;25.33;;
22230;SDS011;11284;48.086;-1.652;2023-02-11T05:19:23;34.60;;;25.45;;
22230;SDS011;11284;48.086;-1.652;2023-02-11T05:21:49;33.15;;;24.42;;
22230;SDS011;11284;48.086;-1.652;2023-02-11T05:24:15;29.17;;;24.00;;
22230;SDS011;11284;48.086;-1.652;2023-02-11T05:26:41;30.15;;;23.65;;
22230;SDS011;11284;48.086;-1.652;2023-02-11T05:29:07;36.30;;;26.35;;
22230;SDS011;11284;48.086;-1.652;2023-02-11T05:31:33;30.38;;;24.40;;
22230;SDS011;11284;48.086;-1.652;2023-02-11T05:33:59;34.33;;;25.52;;
22230;SDS011;11284;48.086;-1.652;2023-02-11T05:36:28;28.88;;;24.20;;
22230;SDS011;11284;48.086;-1.652;2023-02-11T05:38:54;31.02;;;24.85;;
22230;SDS011;11284;48.086;-1.652;2023-02-11T05:41:20;35.20;;;26.00;;
22230;SDS011;11284;48.086;-1.652;2023-02-11T05:43:49;32.50;;;25.33;;
22230;SDS011;11284;48.086;-1.652;2023-02-11T05:46:15;32.30;;;25.23;;
22230;SDS011;11284;48.086;-1.652;2023-02-11T05:48:41;32.00;;;25.15;;
22230;SDS011;11284;48.086;-1.652;2023-02-11T05:51:08;34.08;;;25.00;;
22230;SDS011;11284;48.086;-1.652;2023-02-11T05:53:34;33.22;;;26.08;;
22230;SDS011;11284;48.086;-1.652;2023-02-11T05:56:00;32.47;;;25.33;;
22230;SDS011;11284;48.086;-1.652;2023-02-11T05:58:26;32.20;;;24.38;;
22230;SDS011;11284;48.086;-1.652;2023-02-11T06:00:52;30.85;;;25.00;;
22230;SDS011;11284;48.086;-1.652;2023-02-11T06:03:18;32.08;;;24.77;;
22230;SDS011;11284;48.086;-1.652;2023-02-11T06:05:44;33.38;;;25.83;;
22230;SDS011;11284;48.086;-1.652;2023-02-11T06:08:10;32.90;;;24.35;;
22230;SDS011;11284;48.086;-1.652;2023-02-11T06:10:36;30.92;;;24.25;;
22230;SDS011;11284;48.086;-1.652;2023-02-11T06:13:02;34.35;;;25.50;;
22230;SDS011;11284;48.086;-1.652;2023-02-11T06:15:28;30.88;;;24.40;;
22230;SDS011;11284;48.086;-1.652;2023-02-11T06:17:55;31.77;;;24.45;;
22230;SDS011;11284;48.086;-1.652;2023-02-11T06:20:21;30.33;;;23.52;;
22230;SDS011;11284;48.086;-1.652;2023-02-11T06:22:47;32.05;;;24.17;;
22230;SDS011;11284;48.086;-1.652;2023-02-11T06:25:13;32.53;;;24.55;;
22230;SDS011;11284;48.086;-1.652;2023-02-11T06:27:39;33.60;;;24.35;;
22230;SDS011;11284;48.086;-1.652;2023-02-11T06:30:06;30.77;;;24.15;;
22230;SDS011;11284;48.086;-1.652;2023-02-11T06:32:32;29.33;;;23.83;;
22230;SDS011;11284;48.086;-1.652;2023-02-11T06:34:58;30.02;;;24.25;;
22230;SDS011;11284;48.086;-1.652;2023-02-11T06:37:24;30.23;;;23.58;;
22230;SDS011;11284;48.086;-1.652;2023-02-11T06:39:50;29.40;;;22.75;;
22230;SDS011;11284;48.086;-1.652;2023-02-11T06:42:16;30.70;;;23.52;;
22230;SDS011;11284;48.086;-1.652;2023-02-11T06:44:42;31.02;;;22.92;;
22230;SDS011;11284;48.086;-1.652;2023-02-11T06:47:08;29.58;;;23.45;;
22230;SDS011;11284;48.086;-1.652;2023-02-11T06:49:34;30.73;;;23.30;;
22230;SDS011;11284;48.086;-1.652;2023-02-11T06:52:00;36.13;;;24.23;;
22230;SDS011;11284;48.086;-1.652;2023-02-11T06:54:27;32.80;;;23.42;;
22230;SDS011;11284;48.086;-1.652;2023-02-11T06:56:53;37.72;;;25.35;;
22230;SDS011;11284;48.086;-1.652;2023-02-11T06:59:19;32.17;;;23.77;;
22230;SDS011;11284;48.086;-1.652;2023-02-11T07:01:45;30.60;;;24.05;;
22230;SDS011;11284;48.086;-1.652;2023-02-11T07:04:12;27.92;;;23.00;;
22230;SDS011;11284;48.086;-1.652;2023-02-11T07:06:41;32.28;;;24.27;;
22230;SDS011;11284;48.086;-1.652;2023-02-11T07:09:07;28.92;;;23.20;;
22230;SDS011;11284;48.086;-1.652;2023-02-11T07:11:33;31.63;;;25.05;;
22230;SDS011;11284;48.086;-1.652;2023-02-11T07:14:00;32.67;;;25.10;;
22230;SDS011;11284;48.086;-1.652;2023-02-11T07:16:26;29.92;;;23.75;;
22230;SDS011;11284;48.086;-1.652;2023-02-11T07:18:52;29.08;;;23.80;;
22230;SDS011;11284;48.086;-1.652;2023-02-11T07:21:19;32.17;;;24.67;;
22230;SDS011;11284;48.086;-1.652;2023-02-11T07:23:45;29.77;;;24.38;;
22230;SDS011;11284;48.086;-1.652;2023-02-11T07:26:13;29.70;;;24.30;;
22230;SDS011;11284;48.086;-1.652;2023-02-11T07:28:40;29.85;;;23.90;;
22230;SDS011;11284;48.086;-1.652;2023-02-11T07:33:33;30.02;;;23.58;;
22230;SDS011;11284;48.086;-1.652;2023-02-11T07:35:59;30.38;;;24.25;;
22230;SDS011;11284;48.086;-1.652;2023-02-11T07:38:26;31.63;;;24.02;;
22230;SDS011;11284;48.086;-1.652;2023-02-11T07:40:52;29.85;;;23.90;;
22230;SDS011;11284;48.086;-1.652;2023-02-11T07:43:18;29.60;;;23.67;;
22230;SDS011;11284;48.086;-1.652;2023-02-11T07:45:44;28.13;;;23.77;;
22230;SDS011;11284;48.086;-1.652;2023-02-11T07:48:10;34.28;;;24.35;;
22230;SDS011;11284;48.086;-1.652;2023-02-11T07:50:36;32.15;;;23.98;;
22230;SDS011;11284;48.086;-1.652;2023-02-11T07:53:02;36.25;;;24.20;;
22230;SDS011;11284;48.086;-1.652;2023-02-11T07:55:28;30.38;;;23.42;;
22230;SDS011;11284;48.086;-1.652;2023-02-11T07:57:54;33.33;;;24.63;;
22230;SDS011;11284;48.086;-1.652;2023-02-11T08:00:20;37.90;;;24.25;;
22230;SDS011;11284;48.086;-1.652;2023-02-11T08:02:46;33.25;;;24.13;;
22230;SDS011;11284;48.086;-1.652;2023-02-11T08:05:12;36.80;;;24.40;;
22230;SDS011;11284;48.086;-1.652;2023-02-11T08:07:38;32.95;;;24.50;;
22230;SDS011;11284;48.086;-1.652;2023-02-11T08:10:04;34.15;;;24.25;;
22230;SDS011;11284;48.086;-1.652;2023-02-11T08:12:30;45.22;;;24.77;;
22230;SDS011;11284;48.086;-1.652;2023-02-11T08:14:56;37.08;;;24.98;;
22230;SDS011;11284;48.086;-1.652;2023-02-11T08:17:22;33.00;;;24.02;;
22230;SDS011;11284;48.086;-1.652;2023-02-11T08:19:48;43.20;;;24.42;;
22230;SDS011;11284;48.086;-1.652;2023-02-11T08:22:14;43.88;;;24.83;;
22230;SDS011;11284;48.086;-1.652;2023-02-11T08:24:40;45.47;;;25.38;;
22230;SDS011;11284;48.086;-1.652;2023-02-11T08:27:06;47.60;;;26.30;;
22230;SDS011;11284;48.086;-1.652;2023-02-11T08:29:32;39.72;;;25.77;;
22230;SDS011;11284;48.086;-1.652;2023-02-11T08:31:58;45.90;;;26.13;;
22230;SDS011;11284;48.086;-1.652;2023-02-11T08:34:24;52.03;;;25.45;;
22230;SDS011;11284;48.086;-1.652;2023-02-11T08:36:50;45.65;;;24.73;;
22230;SDS011;11284;48.086;-1.652;2023-02-11T08:39:20;50.53;;;26.33;;
22230;SDS011;11284;48.086;-1.652;2023-02-11T08:41:47;47.95;;;25.75;;
22230;SDS011;11284;48.086;-1.652;2023-02-11T08:44:14;49.60;;;26.77;;
22230;SDS011;11284;48.086;-1.652;2023-02-11T08:46:40;54.95;;;26.50;;
22230;SDS011;11284;48.086;-1.652;2023-02-11T08:49:06;41.10;;;26.30;;
22230;SDS011;11284;48.086;-1.652;2023-02-11T08:51:32;42.78;;;27.70;;
22230;SDS011;11284;48.086;-1.652;2023-02-11T08:53:58;49.85;;;27.45;;
22230;SDS011;11284;48.086;-1.652;2023-02-11T08:56:24;46.88;;;27.70;;
22230;SDS011;11284;48.086;-1.652;2023-02-11T08:58:50;47.05;;;26.67;;
22230;SDS011;11284;48.086;-1.652;2023-02-11T09:01:21;52.65;;;27.67;;
22230;SDS011;11284;48.086;-1.652;2023-02-11T09:03:47;48.45;;;26.35;;
22230;SDS011;11284;48.086;-1.652;2023-02-11T09:06:13;48.25;;;29.70;;
22230;SDS011;11284;48.086;-1.652;2023-02-11T09:08:41;46.28;;;28.17;;
22230;SDS011;11284;48.086;-1.652;2023-02-11T09:11:08;43.03;;;27.55;;
22230;SDS011;11284;48.086;-1.652;2023-02-11T09:13:34;42.42;;;25.42;;
22230;SDS011;11284;48.086;-1.652;2023-02-11T09:16:01;38.45;;;25.67;;
22230;SDS011;11284;48.086;-1.652;2023-02-11T09:18:27;36.67;;;26.33;;
22230;SDS011;11284;48.086;-1.652;2023-02-11T09:21:00;36.15;;;26.52;;
22230;SDS011;11284;48.086;-1.652;2023-02-11T09:23:26;33.42;;;25.80;;
22230;SDS011;11284;48.086;-1.652;2023-02-11T09:25:52;32.80;;;25.45;;
22230;SDS011;11284;48.086;-1.652;2023-02-11T09:28:18;33.60;;;25.90;;
22230;SDS011;11284;48.086;-1.652;2023-02-11T09:30:44;29.98;;;25.70;;
22230;SDS011;11284;48.086;-1.652;2023-02-11T09:33:11;29.67;;;25.23;;
22230;SDS011;11284;48.086;-1.652;2023-02-11T09:35:37;27.40;;;24.33;;
22230;SDS011;11284;48.086;-1.652;2023-02-11T09:38:02;30.10;;;25.50;;
22230;SDS011;11284;48.086;-1.652;2023-02-11T09:40:28;31.35;;;24.73;;
22230;SDS011;11284;48.086;-1.652;2023-02-11T09:45:53;28.92;;;24.90;;
22230;SDS011;11284;48.086;-1.652;2023-02-11T09:48:20;32.70;;;25.55;;
22230;SDS011;11284;48.086;-1.652;2023-02-11T09:50:48;31.35;;;26.52;;
22230;SDS011;11284;48.086;-1.652;2023-02-11T09:55:51;31.67;;;26.05;;
22230;SDS011;11284;48.086;-1.652;2023-02-11T09:58:30;31.98;;;26.33;;
22230;SDS011;11284;48.086;-1.652;2023-02-11T10:01:05;34.83;;;26.10;;
22230;SDS011;11284;48.086;-1.652;2023-02-11T10:11:29;34.58;;;26.38;;
22230;SDS011;11284;48.086;-1.652;2023-02-11T10:21:45;30.80;;;25.15;;
22230;SDS011;11284;48.086;-1.652;2023-02-11T10:24:15;29.30;;;24.15;;
22230;SDS011;11284;48.086;-1.652;2023-02-11T10:26:41;30.98;;;25.23;;
22230;SDS011;11284;48.086;-1.652;2023-02-11T10:29:27;32.45;;;26.60;;
22230;SDS011;11284;48.086;-1.652;2023-02-11T10:31:56;35.70;;;27.90;;
22230;SDS011;11284;48.086;-1.652;2023-02-11T10:34:23;35.33;;;27.35;;
22230;SDS011;11284;48.086;-1.652;2023-02-11T10:36:49;30.45;;;26.20;;
22230;SDS011;11284;48.086;-1.652;2023-02-11T10:39:16;32.28;;;26.42;;
22230;SDS011;11284;48.086;-1.652;2023-02-11T10:41:44;32.25;;;26.02;;
22230;SDS011;11284;48.086;-1.652;2023-02-11T10:44:21;31.10;;;26.05;;
22230;SDS011;11284;48.086;-1.652;2023-02-11T10:46:48;30.33;;;24.90;;
22230;SDS011;11284;48.086;-1.652;2023-02-11T10:49:36;30.60;;;25.17;;
22230;SDS011;11284;48.086;-1.652;2023-02-11T10:57:27;28.02;;;23.80;;
22230;SDS011;11284;48.086;-1.652;2023-02-11T10:59:58;31.02;;;23.75;;
22230;SDS011;11284;48.086;-1.652;2023-02-11T11:02:30;28.08;;;23.10;;
22230;SDS011;11284;48.086;-1.652;2023-02-11T11:05:03;27.90;;;24.08;;
22230;SDS011;11284;48.086;-1.652;2023-02-11T11:07:30;28.65;;;23.50;;
22230;SDS011;11284;48.086;-1.652;2023-02-11T11:10:05;27.77;;;23.25;;
22230;SDS011;11284;48.086;-1.652;2023-02-11T11:17:37;27.13;;;23.52;;
22230;SDS011;11284;48.086;-1.652;2023-02-11T11:22:44;25.35;;;21.92;;
22230;SDS011;11284;48.086;-1.652;2023-02-11T11:25:21;25.35;;;22.25;;
22230;SDS011;11284;48.086;-1.652;2023-02-11T11:27:51;25.02;;;21.75;;
22230;SDS011;11284;48.086;-1.652;2023-02-11T11:30:17;26.75;;;22.60;;
22230;SDS011;11284;48.086;-1.652;2023-02-11T11:32:43;28.48;;;23.73;;
22230;SDS011;11284;48.086;-1.652;2023-02-11T11:35:23;26.00;;;22.55;;
22230;SDS011;11284;48.086;-1.652;2023-02-11T11:37:53;26.55;;;23.65;;
22230;SDS011;11284;48.086;-1.652;2023-02-11T11:40:21;24.92;;;22.23;;
22230;SDS011;11284;48.086;-1.652;2023-02-11T11:45:33;25.55;;;22.42;;
22230;SDS011;11284;48.086;-1.652;2023-02-11T11:51:19;29.85;;;23.23;;
22230;SDS011;11284;48.086;-1.652;2023-02-11T11:56:26;25.10;;;21.45;;
22230;SDS011;11284;48.086;-1.652;2023-02-11T11:58:51;25.00;;;21.48;;
22230;SDS011;11284;48.086;-1.652;2023-02-11T12:06:40;24.35;;;21.20;;
22230;SDS011;11284;48.086;-1.652;2023-02-11T12:11:55;23.02;;;19.50;;
22230;SDS011;11284;48.086;-1.652;2023-02-11T12:29:49;24.10;;;20.77;;
22230;SDS011;11284;48.086;-1.652;2023-02-11T12:32:16;25.98;;;20.25;;
22230;SDS011;11284;48.086;-1.652;2023-02-11T12:39:53;24.25;;;19.27;;
22230;SDS011;11284;48.086;-1.652;2023-02-11T12:50:29;25.30;;;22.08;;
22230;SDS011;11284;48.086;-1.652;2023-02-11T12:55:28;24.70;;;21.50;;
22230;SDS011;11284;48.086;-1.652;2023-02-11T12:57:57;21.85;;;17.25;;
22230;SDS011;11284;48.086;-1.652;2023-02-11T13:00:32;22.40;;;17.73;;
22230;SDS011;11284;48.086;-1.652;2023-02-11T13:05:39;20.25;;;16.85;;
22230;SDS011;11284;48.086;-1.652;2023-02-11T13:08:20;21.05;;;15.27;;
22230;SDS011;11284;48.086;-1.652;2023-02-11T13:10:53;18.52;;;15.63;;
22230;SDS011;11284;48.086;-1.652;2023-02-11T13:15:57;19.95;;;15.73;;
22230;SDS011;11284;48.086;-1.652;2023-02-11T13:28:48;14.18;;;9.88;;
22230;SDS011;11284;48.086;-1.652;2023-02-11T13:31:15;10.77;;;8.75;;
22230;SDS011;11284;48.086;-1.652;2023-02-11T13:33:44;11.35;;;8.50;;
22230;SDS011;11284;48.086;-1.652;2023-02-11T13:36:14;11.45;;;8.00;;
22230;SDS011;11284;48.086;-1.652;2023-02-11T13:38:45;11.40;;;8.77;;
22230;SDS011;11284;48.086;-1.652;2023-02-11T13:41:22;13.35;;;8.93;;
22230;SDS011;11284;48.086;-1.652;2023-02-11T13:44:18;12.00;;;8.82;;
22230;SDS011;11284;48.086;-1.652;2023-02-11T13:47:21;10.60;;;8.55;;
22230;SDS011;11284;48.086;-1.652;2023-02-11T13:49:39;10.27;;;8.27;;
22230;SDS011;11284;48.086;-1.652;2023-02-11T13:52:17;9.80;;;8.43;;
22230;SDS011;11284;48.086;-1.652;2023-02-11T13:54:46;13.02;;;9.20;;
22230;SDS011;11284;48.086;-1.652;2023-02-11T13:59:47;11.93;;;8.38;;
22230;SDS011;11284;48.086;-1.652;2023-02-11T14:05:18;10.93;;;8.32;;
22230;SDS011;11284;48.086;-1.652;2023-02-11T14:08:10;11.45;;;8.90;;
22230;SDS011;11284;48.086;-1.652;2023-02-11T14:11:00;12.32;;;8.80;;
22230;SDS011;11284;48.086;-1.652;2023-02-11T14:16:02;9.65;;;8.27;;
22230;SDS011;11284;48.086;-1.652;2023-02-11T14:23:49;11.75;;;8.68;;
22230;SDS011;11284;48.086;-1.652;2023-02-11T14:31:37;11.68;;;8.82;;
22230;SDS011;11284;48.086;-1.652;2023-02-11T14:34:07;12.68;;;8.70;;
22230;SDS011;11284;48.086;-1.652;2023-02-11T14:41:39;11.00;;;8.80;;
22230;SDS011;11284;48.086;-1.652;2023-02-11T14:44:07;11.27;;;9.27;;
22230;SDS011;11284;48.086;-1.652;2023-02-11T14:46:37;11.05;;;9.25;;
22230;SDS011;11284;48.086;-1.652;2023-02-11T14:49:03;11.18;;;9.50;;
22230;SDS011;11284;48.086;-1.652;2023-02-11T14:51:30;11.00;;;9.10;;
22230;SDS011;11284;48.086;-1.652;2023-02-11T14:54:03;10.90;;;8.98;;
22230;SDS011;11284;48.086;-1.652;2023-02-11T14:56:32;13.40;;;9.80;;
22230;SDS011;11284;48.086;-1.652;2023-02-11T14:58:58;14.98;;;11.45;;
22230;SDS011;11284;48.086;-1.652;2023-02-11T15:01:34;13.13;;;11.25;;
22230;SDS011;11284;48.086;-1.652;2023-02-11T15:04:02;14.40;;;10.45;;
22230;SDS011;11284;48.086;-1.652;2023-02-11T15:06:33;12.88;;;10.02;;
22230;SDS011;11284;48.086;-1.652;2023-02-11T15:09:15;12.30;;;9.43;;
22230;SDS011;11284;48.086;-1.652;2023-02-11T15:11:42;13.05;;;10.10;;
22230;SDS011;11284;48.086;-1.652;2023-02-11T15:14:31;11.55;;;9.43;;
22230;SDS011;11284;48.086;-1.652;2023-02-11T15:16:57;11.48;;;9.23;;
22230;SDS011;11284;48.086;-1.652;2023-02-11T15:21:50;11.32;;;7.85;;
22230;SDS011;11284;48.086;-1.652;2023-02-11T15:26:55;9.20;;;7.18;;
22230;SDS011;11284;48.086;-1.652;2023-02-11T15:29:25;9.25;;;7.85;;
22230;SDS011;11284;48.086;-1.652;2023-02-11T15:32:02;12.10;;;8.15;;
22230;SDS011;11284;48.086;-1.652;2023-02-11T15:34:29;10.98;;;8.48;;
22230;SDS011;11284;48.086;-1.652;2023-02-11T15:36:56;10.13;;;7.72;;
22230;SDS011;11284;48.086;-1.652;2023-02-11T15:39:30;8.82;;;7.13;;
22230;SDS011;11284;48.086;-1.652;2023-02-11T15:42:14;11.25;;;7.28;;
22230;SDS011;11284;48.086;-1.652;2023-02-11T15:44:40;9.68;;;7.20;;
22230;SDS011;11284;48.086;-1.652;2023-02-11T15:47:08;11.85;;;7.97;;
22230;SDS011;11284;48.086;-1.652;2023-02-11T15:49:34;10.50;;;7.55;;
22230;SDS011;11284;48.086;-1.652;2023-02-11T15:52:00;10.02;;;8.10;;
22230;SDS011;11284;48.086;-1.652;2023-02-11T15:54:27;10.32;;;7.93;;
22230;SDS011;11284;48.086;-1.652;2023-02-11T15:57:02;9.77;;;7.68;;
22230;SDS011;11284;48.086;-1.652;2023-02-11T15:59:33;10.63;;;7.80;;
22230;SDS011;11284;48.086;-1.652;2023-02-11T16:02:06;11.07;;;8.00;;
22230;SDS011;11284;48.086;-1.652;2023-02-11T16:04:33;11.32;;;8.80;;
22230;SDS011;11284;48.086;-1.652;2023-02-11T16:06:59;10.40;;;7.90;;
22230;SDS011;11284;48.086;-1.652;2023-02-11T16:09:32;10.20;;;7.70;;
22230;SDS011;11284;48.086;-1.652;2023-02-11T16:12:00;11.10;;;9.10;;
22230;SDS011;11284;48.086;-1.652;2023-02-11T16:16:54;10.05;;;8.10;;
22230;SDS011;11284;48.086;-1.652;2023-02-11T16:19:21;12.07;;;9.00;;
22230;SDS011;11284;48.086;-1.652;2023-02-11T16:21:48;10.93;;;8.55;;
22230;SDS011;11284;48.086;-1.652;2023-02-11T16:24:18;11.55;;;8.48;;
22230;SDS011;11284;48.086;-1.652;2023-02-11T16:26:47;10.98;;;8.32;;
22230;SDS011;11284;48.086;-1.652;2023-02-11T16:29:17;11.38;;;8.20;;
22230;SDS011;11284;48.086;-1.652;2023-02-11T16:31:46;11.10;;;8.48;;
22230;SDS011;11284;48.086;-1.652;2023-02-11T16:34:18;11.75;;;7.90;;
22230;SDS011;11284;48.086;-1.652;2023-02-11T16:36:45;15.60;;;8.68;;
22230;SDS011;11284;48.086;-1.652;2023-02-11T16:39:11;12.63;;;7.88;;
22230;SDS011;11284;48.086;-1.652;2023-02-11T16:41:37;10.98;;;8.13;;
22230;SDS011;11284;48.086;-1.652;2023-02-11T16:44:03;12.50;;;8.73;;
22230;SDS011;11284;48.086;-1.652;2023-02-11T16:46:30;12.43;;;8.07;;
22230;SDS011;11284;48.086;-1.652;2023-02-11T16:48:56;11.57;;;8.35;;
22230;SDS011;11284;48.086;-1.652;2023-02-11T16:51:22;10.13;;;7.18;;
22230;SDS011;11284;48.086;-1.652;2023-02-11T16:53:48;11.73;;;8.68;;
22230;SDS011;11284;48.086;-1.652;2023-02-11T16:56:15;9.52;;;6.63;;
22230;SDS011;11284;48.086;-1.652;2023-02-11T16:58:42;9.10;;;6.90;;
22230;SDS011;11284;48.086;-1.652;2023-02-11T17:01:08;9.88;;;7.75;;
22230;SDS011;11284;48.086;-1.652;2023-02-11T17:03:34;10.02;;;6.45;;
22230;SDS011;11284;48.086;-1.652;2023-02-11T17:06:04;13.05;;;8.05;;